createdAt,value
2017-12-29T00:00:37.683Z,84.69
2017-12-29T00:03:04.553Z,84.29
2017-12-29T00:05:31.431Z,85.01
2017-12-29T00:07:58.271Z,85.18
2017-12-29T00:10:25.093Z,84.69
2017-12-29T00:12:51.914Z,85.19
2017-12-29T00:15:18.756Z,85.08
2017-12-29T00:17:45.632Z,85.82
2017-12-29T00:20:12.473Z,85.79
2017-12-29T00:22:39.289Z,84.82
2017-12-29T00:25:06.109Z,85.69
2017-12-29T00:27:34.714Z,84.80
2017-12-29T00:30:01.696Z,85.10
2017-12-29T00:32:28.548Z,85.29
2017-12-29T00:34:55.381Z,85.51
2017-12-29T00:37:22.984Z,85.49
2017-12-29T00:39:49.776Z,84.97
2017-12-29T00:42:16.640Z,85.32
2017-12-29T00:44:43.450Z,85.12
2017-12-29T00:47:10.281Z,85.26
2017-12-29T00:49:37.522Z,84.93
2017-12-29T00:52:05.140Z,85.64
2017-12-29T00:54:33.064Z,85.45
2017-12-29T00:56:59.860Z,85.71
2017-12-29T00:59:26.856Z,84.89
2017-12-29T01:01:53.790Z,85.72
2017-12-29T01:04:20.650Z,85.35
2017-12-29T01:06:49.244Z,85.10
2017-12-29T01:09:17.262Z,85.27
2017-12-29T01:11:44.829Z,85.00
2017-12-29T01:14:12.396Z,85.05
2017-12-29T01:16:39.213Z,85.46
2017-12-29T01:19:06.006Z,85.40
2017-12-29T01:21:32.841Z,84.83
2017-12-29T01:23:59.690Z,84.93
2017-12-29T01:26:26.474Z,85.65
2017-12-29T01:28:53.923Z,85.87
2017-12-29T01:31:21.408Z,85.06
2017-12-29T01:33:48.860Z,85.03
2017-12-29T01:36:16.473Z,84.70
2017-12-29T01:38:43.384Z,85.04
2017-12-29T01:41:11.563Z,85.08
2017-12-29T01:43:38.377Z,85.37
2017-12-29T01:46:05.853Z,84.98
2017-12-29T01:48:32.719Z,85.13
2017-12-29T01:50:59.536Z,85.39
2017-12-29T01:53:26.347Z,85.92
2017-12-29T01:55:53.149Z,85.36
2017-12-29T01:58:19.987Z,85.16
2017-12-29T02:00:46.870Z,85.09
2017-12-29T02:03:14.432Z,85.23
2017-12-29T02:05:41.236Z,85.28
2017-12-29T02:08:08.374Z,85.87
2017-12-29T02:10:35.251Z,85.53
2017-12-29T02:13:02.072Z,85.51
2017-12-29T02:15:28.908Z,85.57
2017-12-29T02:17:55.841Z,85.73
2017-12-29T02:20:24.455Z,85.64
2017-12-29T02:22:51.395Z,85.40
2017-12-29T02:25:18.253Z,85.68
2017-12-29T02:27:45.833Z,86.29
2017-12-29T02:30:13.522Z,85.93
2017-12-29T02:32:40.379Z,86.08
2017-12-29T02:35:07.913Z,85.38
2017-12-29T02:37:34.680Z,85.41
2017-12-29T02:40:01.551Z,85.52
2017-12-29T02:42:28.355Z,85.73
2017-12-29T02:44:55.172Z,86.04
2017-12-29T02:47:21.954Z,85.60
2017-12-29T02:49:48.737Z,86.54
2017-12-29T02:52:15.585Z,86.03
2017-12-29T02:54:43.141Z,85.91
2017-12-29T02:57:09.984Z,85.84
2017-12-29T02:59:36.770Z,85.85
2017-12-29T03:02:04.403Z,86.25
2017-12-29T03:04:31.196Z,85.62
2017-12-29T03:06:57.996Z,85.34
2017-12-29T03:09:24.803Z,85.65
2017-12-29T03:11:53.244Z,85.30
2017-12-29T03:14:20.076Z,85.49
2017-12-29T03:16:46.923Z,85.52
2017-12-29T03:19:13.784Z,85.36
2017-12-29T03:21:40.601Z,85.12
2017-12-29T03:24:07.486Z,85.65
2017-12-29T03:26:34.245Z,85.35
2017-12-29T03:29:01.039Z,85.12
2017-12-29T03:31:27.852Z,85.22
2017-12-29T03:33:54.779Z,85.76
2017-12-29T03:36:21.584Z,85.14
2017-12-29T03:38:48.691Z,85.16
2017-12-29T03:41:15.535Z,85.26
2017-12-29T03:43:42.373Z,85.32
2017-12-29T03:46:09.205Z,85.28
2017-12-29T03:48:36.016Z,85.50
2017-12-29T03:51:03.040Z,85.75
2017-12-29T03:53:29.863Z,85.39
2017-12-29T03:55:56.772Z,85.40
2017-12-29T03:58:23.566Z,85.57
2017-12-29T04:00:50.382Z,85.24
2017-12-29T04:03:17.963Z,85.76
2017-12-29T04:05:44.768Z,85.76
2017-12-29T04:08:11.617Z,85.47
2017-12-29T04:10:38.668Z,85.65
2017-12-29T04:13:05.466Z,85.20
2017-12-29T04:15:32.373Z,85.26
2017-12-29T04:17:59.592Z,85.26
2017-12-29T04:20:26.578Z,85.24
2017-12-29T04:22:53.632Z,85.17
2017-12-29T04:25:20.455Z,85.33
2017-12-29T04:27:47.363Z,85.48
2017-12-29T04:30:14.315Z,85.43
2017-12-29T04:32:41.097Z,85.33
2017-12-29T04:35:07.936Z,85.44
2017-12-29T04:37:35.210Z,86.33
2017-12-29T04:40:02.094Z,85.74
2017-12-29T04:42:29.669Z,85.78
2017-12-29T04:44:56.488Z,85.44
2017-12-29T04:47:23.320Z,85.59
2017-12-29T04:49:50.403Z,85.48
2017-12-29T04:52:17.945Z,85.43
2017-12-29T04:54:45.502Z,85.39
2017-12-29T04:57:12.427Z,85.36
2017-12-29T04:59:40.110Z,85.51
2017-12-29T05:02:07.114Z,85.50
2017-12-29T05:04:34.071Z,85.72
2017-12-29T05:07:00.877Z,85.75
2017-12-29T05:09:27.716Z,86.09
2017-12-29T05:11:59.859Z,86.16
2017-12-29T05:14:26.906Z,85.56
2017-12-29T05:16:54.584Z,85.82
2017-12-29T05:19:22.246Z,86.01
2017-12-29T05:21:49.135Z,86.62
2017-12-29T05:24:15.926Z,86.45
2017-12-29T05:26:42.755Z,86.46
2017-12-29T05:29:09.564Z,86.31
2017-12-29T05:31:36.395Z,86.22
2017-12-29T05:34:03.196Z,86.21
2017-12-29T05:36:29.961Z,86.43
2017-12-29T05:38:56.792Z,86.60
2017-12-29T05:41:23.578Z,86.34
2017-12-29T05:43:50.376Z,86.26
2017-12-29T05:46:17.168Z,86.92
2017-12-29T05:48:44.033Z,86.21
2017-12-29T05:51:10.835Z,86.17
2017-12-29T05:53:37.788Z,86.27
2017-12-29T05:56:04.594Z,86.18
2017-12-29T05:58:31.412Z,86.61
2017-12-29T06:00:58.246Z,86.14
2017-12-29T06:03:25.092Z,86.15
2017-12-29T06:05:51.940Z,86.10
2017-12-29T06:08:18.760Z,85.94
2017-12-29T06:10:45.573Z,85.87
2017-12-29T06:13:12.381Z,86.06
2017-12-29T06:15:39.201Z,86.03
2017-12-29T06:18:06.010Z,86.07
2017-12-29T06:20:32.811Z,85.91
2017-12-29T06:22:59.627Z,85.72
2017-12-29T06:25:27.280Z,85.94
2017-12-29T06:27:55.621Z,86.39
2017-12-29T06:30:23.456Z,86.65
2017-12-29T06:32:51.242Z,85.95
2017-12-29T06:35:19.065Z,86.07
2017-12-29T06:37:46.982Z,86.53
2017-12-29T06:40:15.565Z,86.02
2017-12-29T06:42:44.203Z,86.22
2017-12-29T06:45:12.744Z,86.75
2017-12-29T06:47:40.593Z,86.27
2017-12-29T06:50:07.668Z,86.03
2017-12-29T06:52:34.515Z,86.95
2017-12-29T06:55:01.358Z,86.32
2017-12-29T06:57:28.141Z,87.30
2017-12-29T06:59:54.926Z,87.61
2017-12-29T07:02:21.745Z,87.25
2017-12-29T07:04:49.323Z,86.41
2017-12-29T07:07:16.146Z,87.06
2017-12-29T07:09:42.935Z,86.86
2017-12-29T07:12:09.690Z,88.13
2017-12-29T07:14:36.477Z,88.02
2017-12-29T07:17:03.288Z,87.95
2017-12-29T07:19:30.087Z,88.37
2017-12-29T07:21:56.867Z,88.20
2017-12-29T07:24:24.733Z,88.07
2017-12-29T07:26:51.515Z,88.38
2017-12-29T07:29:19.059Z,88.29
2017-12-29T07:31:45.876Z,88.42
2017-12-29T07:34:12.679Z,88.36
2017-12-29T07:36:39.491Z,88.33
2017-12-29T07:39:06.285Z,88.94
2017-12-29T07:41:33.141Z,89.70
2017-12-29T07:43:59.945Z,89.21
2017-12-29T07:46:26.788Z,88.67
2017-12-29T07:48:53.629Z,87.80
2017-12-29T07:51:20.425Z,88.37
2017-12-29T07:53:47.249Z,87.54
2017-12-29T07:56:14.047Z,88.74
2017-12-29T07:58:40.829Z,87.98
2017-12-29T08:01:07.686Z,86.66
2017-12-29T08:03:35.210Z,87.13
2017-12-29T08:06:02.029Z,87.51
2017-12-29T08:08:28.867Z,88.27
2017-12-29T08:10:56.410Z,87.63
2017-12-29T08:13:23.285Z,87.22
2017-12-29T08:15:50.094Z,86.97
2017-12-29T08:18:16.880Z,86.94
2017-12-29T08:20:43.651Z,86.90
2017-12-29T08:23:10.465Z,86.99
2017-12-29T08:25:37.324Z,86.15
2017-12-29T08:28:04.930Z,86.46
2017-12-29T08:30:31.712Z,86.13
2017-12-29T08:32:58.531Z,85.97
2017-12-29T08:35:25.339Z,85.73
2017-12-29T08:37:52.154Z,85.80
2017-12-29T08:40:18.935Z,86.01
2017-12-29T08:42:45.755Z,86.30
2017-12-29T08:45:13.302Z,85.30
2017-12-29T08:47:40.119Z,85.78
2017-12-29T08:50:06.918Z,85.79
2017-12-29T08:52:33.726Z,85.73
2017-12-29T08:55:01.259Z,85.79
2017-12-29T08:57:28.070Z,84.99
2017-12-29T08:59:54.984Z,85.14
2017-12-29T09:02:21.815Z,84.96
2017-12-29T09:04:48.598Z,84.87
2017-12-29T09:07:15.420Z,84.36
2017-12-29T09:09:42.215Z,84.65
2017-12-29T09:12:09.465Z,84.44
2017-12-29T09:14:36.261Z,84.55
2017-12-29T09:17:03.049Z,83.78
2017-12-29T09:19:30.571Z,84.11
2017-12-29T09:21:57.432Z,84.19
2017-12-29T09:24:24.274Z,83.91
2017-12-29T09:26:51.060Z,84.06
2017-12-29T09:29:17.871Z,84.48
2017-12-29T09:31:45.349Z,83.66
2017-12-29T09:34:12.915Z,84.27
2017-12-29T09:36:39.693Z,83.93
2017-12-29T09:39:06.481Z,83.99
2017-12-29T09:41:33.304Z,83.98
2017-12-29T09:44:00.902Z,83.27
2017-12-29T09:46:27.780Z,83.55
2017-12-29T09:48:54.551Z,83.04
2017-12-29T09:51:21.381Z,83.22
2017-12-29T09:53:48.170Z,82.94
2017-12-29T09:56:14.984Z,83.41
2017-12-29T09:58:42.524Z,83.36
2017-12-29T10:01:09.311Z,82.86
2017-12-29T10:03:36.102Z,82.48
2017-12-29T10:06:02.927Z,82.09
2017-12-29T10:08:29.713Z,82.13
2017-12-29T10:10:57.258Z,81.69
2017-12-29T10:13:24.064Z,81.70
2017-12-29T10:15:50.827Z,81.35
2017-12-29T10:18:17.620Z,81.08
2017-12-29T10:20:45.386Z,81.08
2017-12-29T10:23:12.168Z,80.95
2017-12-29T10:25:39.032Z,80.64
2017-12-29T10:28:05.852Z,80.18
2017-12-29T10:30:32.674Z,80.75
2017-12-29T10:32:59.482Z,80.03
2017-12-29T10:35:26.324Z,79.44
2017-12-29T10:37:53.134Z,78.73
2017-12-29T10:40:19.943Z,79.39
2017-12-29T10:42:46.701Z,78.66
2017-12-29T10:45:13.527Z,79.42
2017-12-29T10:47:40.403Z,78.94
2017-12-29T10:50:07.235Z,77.47
2017-12-29T10:52:34.101Z,77.20
2017-12-29T10:55:00.931Z,77.05
2017-12-29T10:57:27.769Z,77.05
2017-12-29T10:59:54.548Z,75.71
2017-12-29T11:02:21.373Z,76.35
2017-12-29T11:04:48.959Z,77.12
2017-12-29T11:07:16.516Z,75.92
2017-12-29T11:09:43.265Z,77.11
2017-12-29T11:12:10.128Z,76.09
2017-12-29T11:14:36.889Z,76.08
2017-12-29T11:17:03.696Z,75.68
2017-12-29T11:19:30.582Z,75.33
2017-12-29T11:21:57.391Z,75.90
2017-12-29T11:24:24.967Z,75.63
2017-12-29T11:26:51.795Z,76.02
2017-12-29T11:29:18.628Z,75.21
2017-12-29T11:31:45.428Z,75.48
2017-12-29T11:34:12.274Z,75.56
2017-12-29T11:36:39.083Z,75.09
2017-12-29T11:39:05.928Z,74.84
2017-12-29T11:41:32.715Z,74.39
2017-12-29T11:43:59.551Z,74.85
2017-12-29T11:46:27.114Z,75.15
2017-12-29T11:48:54.050Z,74.97
2017-12-29T11:51:20.866Z,74.72
2017-12-29T11:53:48.388Z,74.43
2017-12-29T11:56:15.195Z,74.55
2017-12-29T11:58:42.735Z,74.49
2017-12-29T12:01:09.549Z,74.87
2017-12-29T12:03:36.457Z,74.39
2017-12-29T12:06:03.323Z,75.19
2017-12-29T12:08:30.199Z,75.02
2017-12-29T12:10:57.018Z,74.88
2017-12-29T12:13:23.870Z,75.08
2017-12-29T12:15:50.699Z,75.16
2017-12-29T12:18:18.235Z,75.05
2017-12-29T12:20:45.038Z,74.16
2017-12-29T12:23:11.826Z,75.22
2017-12-29T12:25:38.633Z,75.20
2017-12-29T12:28:05.425Z,75.22
2017-12-29T12:30:32.203Z,75.22
2017-12-29T12:32:59.084Z,75.12
2017-12-29T12:35:25.900Z,74.19
2017-12-29T12:37:53.459Z,74.65
2017-12-29T12:40:20.235Z,74.75
2017-12-29T12:42:47.758Z,74.99
2017-12-29T12:45:14.547Z,74.62
2017-12-29T12:47:41.404Z,75.05
2017-12-29T12:50:08.205Z,74.53
2017-12-29T12:52:35.759Z,74.78
2017-12-29T12:55:02.612Z,75.00
2017-12-29T12:57:30.218Z,75.00
2017-12-29T12:59:57.784Z,74.93
2017-12-29T13:02:25.330Z,75.04
2017-12-29T13:04:52.173Z,75.12
2017-12-29T13:07:18.926Z,75.18
2017-12-29T13:09:45.704Z,75.12
2017-12-29T13:12:12.522Z,75.10
2017-12-29T13:14:39.326Z,75.08
2017-12-29T13:17:06.165Z,75.58
2017-12-29T13:19:32.962Z,75.30
2017-12-29T13:21:59.818Z,75.36
2017-12-29T13:24:26.633Z,75.35
2017-12-29T13:26:53.432Z,75.22
2017-12-29T13:29:20.274Z,75.13
2017-12-29T13:31:47.115Z,75.29
2017-12-29T13:34:13.894Z,75.55
2017-12-29T13:36:41.587Z,76.22
2017-12-29T13:39:08.655Z,77.63
2017-12-29T13:41:35.519Z,78.50
2017-12-29T13:44:02.300Z,79.68
2017-12-29T13:46:29.105Z,81.16
2017-12-29T13:48:55.889Z,81.29
2017-12-29T13:51:22.666Z,82.87
2017-12-29T13:53:49.452Z,82.80
2017-12-29T13:56:16.250Z,83.86
2017-12-29T13:58:43.009Z,84.36
2017-12-29T14:01:09.792Z,85.46
2017-12-29T14:03:36.577Z,85.20
2017-12-29T14:06:03.424Z,85.44
2017-12-29T14:08:30.221Z,85.72
2017-12-29T14:10:57.749Z,85.83
2017-12-29T14:13:24.550Z,85.73
2017-12-29T14:15:51.365Z,85.89
2017-12-29T14:18:18.165Z,86.38
2017-12-29T14:20:45.026Z,86.16
2017-12-29T14:23:11.829Z,86.13
2017-12-29T14:25:38.582Z,86.90
2017-12-29T14:28:05.616Z,86.91
2017-12-29T14:30:33.184Z,86.84
2017-12-29T14:33:00.004Z,87.43
2017-12-29T14:35:26.847Z,87.29
2017-12-29T14:37:53.609Z,87.25
2017-12-29T14:40:20.384Z,87.31
2017-12-29T14:42:47.169Z,88.23
2017-12-29T14:45:13.952Z,88.48
2017-12-29T14:47:40.789Z,89.59
2017-12-29T14:50:07.607Z,89.22
2017-12-29T14:52:34.385Z,89.44
2017-12-29T14:55:01.174Z,88.95
2017-12-29T14:57:27.927Z,89.61
2017-12-29T14:59:54.703Z,89.36
2017-12-29T15:02:21.494Z,90.08
2017-12-29T15:04:48.233Z,90.31
2017-12-29T15:07:15.048Z,90.34
2017-12-29T15:09:41.853Z,90.81
2017-12-29T15:12:08.673Z,90.69
2017-12-29T15:14:35.479Z,91.05
2017-12-29T15:17:02.308Z,90.68
2017-12-29T15:19:29.113Z,90.86
2017-12-29T15:21:55.944Z,90.84
2017-12-29T15:24:22.731Z,90.79
2017-12-29T15:26:50.283Z,91.77
2017-12-29T15:29:17.081Z,91.21
2017-12-29T15:31:44.655Z,91.25
2017-12-29T15:34:11.465Z,91.78
2017-12-29T15:36:38.241Z,91.39
2017-12-29T15:39:04.985Z,91.72
2017-12-29T15:41:31.756Z,91.57
2017-12-29T15:43:58.566Z,91.52
2017-12-29T15:46:25.375Z,91.44
2017-12-29T15:48:52.137Z,91.26
2017-12-29T15:51:29.171Z,91.74
2017-12-29T15:53:56.687Z,91.82
2017-12-29T15:56:23.500Z,91.65
2017-12-29T15:58:51.012Z,92.15
2017-12-29T16:25:16.566Z,91.81
2017-12-29T16:27:44.116Z,91.84
2017-12-29T16:30:10.982Z,92.21
2017-12-29T16:32:38.153Z,92.23
2017-12-29T16:35:04.960Z,91.94
2017-12-29T16:37:31.737Z,91.53
2017-12-29T16:39:58.556Z,91.66
2017-12-29T16:42:26.201Z,91.70
2017-12-29T16:44:53.000Z,91.67
2017-12-29T16:47:20.563Z,91.58
2017-12-29T16:49:48.478Z,91.71
2017-12-29T16:52:15.278Z,92.20
2017-12-29T16:54:42.151Z,92.48
2017-12-29T16:57:08.957Z,92.33
2017-12-29T16:59:35.773Z,92.92
2017-12-29T17:02:02.638Z,92.51
2017-12-29T17:04:29.502Z,92.43
2017-12-29T17:06:56.323Z,92.94
2017-12-29T17:09:23.146Z,92.20
2017-12-29T17:11:50.771Z,92.39
2017-12-29T17:14:17.564Z,91.90
2017-12-29T17:16:44.386Z,92.14
2017-12-29T17:19:11.231Z,92.28
2017-12-29T17:21:38.020Z,91.88
2017-12-29T17:24:04.870Z,92.06
2017-12-29T17:26:31.702Z,92.64
2017-12-29T17:28:59.229Z,92.59
2017-12-29T17:31:26.008Z,92.59
2017-12-29T17:33:52.899Z,92.90
2017-12-29T17:36:20.450Z,92.65
2017-12-29T17:38:47.270Z,93.28
2017-12-29T17:41:14.087Z,92.91
2017-12-29T17:43:40.868Z,92.99
2017-12-29T17:46:07.652Z,92.94
2017-12-29T17:48:34.461Z,92.70
2017-12-29T17:51:01.264Z,92.73
2017-12-29T17:53:28.106Z,93.03
2017-12-29T17:55:54.946Z,92.89
2017-12-29T17:58:22.505Z,92.93
2017-12-29T18:00:49.300Z,92.91
2017-12-29T18:03:17.245Z,92.90
2017-12-29T18:05:44.064Z,92.78
2017-12-29T18:08:10.901Z,93.11
2017-12-29T18:10:38.464Z,93.22
2017-12-29T18:13:05.272Z,93.26
2017-12-29T18:15:32.075Z,93.11
2017-12-29T18:17:58.901Z,92.43
2017-12-29T18:20:25.712Z,92.60
2017-12-29T18:22:53.255Z,92.31
2017-12-29T18:25:20.070Z,92.19
2017-12-29T18:27:46.988Z,92.64
2017-12-29T18:30:13.804Z,92.51
2017-12-29T18:32:40.723Z,93.21
2017-12-29T18:35:07.539Z,92.63
2017-12-29T18:37:34.468Z,92.51
2017-12-29T18:40:02.261Z,92.78
2017-12-29T18:42:29.234Z,92.68
2017-12-29T18:44:56.420Z,92.53
2017-12-29T18:47:23.248Z,93.51
2017-12-29T18:49:50.802Z,93.85
2017-12-29T18:52:17.817Z,92.55
2017-12-29T18:54:44.597Z,93.27
2017-12-29T18:57:11.413Z,93.25
2017-12-29T18:59:38.200Z,93.18
2017-12-29T19:02:05.057Z,92.71
2017-12-29T19:04:31.860Z,92.95
2017-12-29T19:06:58.716Z,93.43
2017-12-29T19:09:25.573Z,93.24
2017-12-29T19:11:52.386Z,93.15
2017-12-29T19:14:19.191Z,93.07
2017-12-29T19:16:46.485Z,92.99
2017-12-29T19:19:13.321Z,93.20
2017-12-29T19:21:40.128Z,93.35
2017-12-29T19:24:07.696Z,93.57
2017-12-29T19:26:35.252Z,93.76
2017-12-29T19:29:02.052Z,93.71
2017-12-29T19:31:28.851Z,92.88
2017-12-29T19:33:55.775Z,92.93
2017-12-29T19:36:22.611Z,93.21
2017-12-29T19:38:49.431Z,93.09
2017-12-29T19:41:16.201Z,93.33
2017-12-29T19:43:43.101Z,93.49
2017-12-29T19:46:11.686Z,93.99
2017-12-29T19:48:38.552Z,93.46
2017-12-29T19:51:05.360Z,93.72
2017-12-29T19:53:32.209Z,93.49
2017-12-29T19:55:58.975Z,93.40
2017-12-29T19:58:25.747Z,93.25
2017-12-29T20:00:52.689Z,93.27
2017-12-29T20:03:19.866Z,93.08
2017-12-29T20:05:46.992Z,93.22
2017-12-29T20:08:13.817Z,93.46
2017-12-29T20:10:40.686Z,93.27
2017-12-29T20:13:07.499Z,93.16
2017-12-29T20:15:35.529Z,93.17
2017-12-29T20:18:03.109Z,93.17
2017-12-29T20:20:30.783Z,93.37
2017-12-29T20:23:00.238Z,93.32
2017-12-29T20:25:28.506Z,93.58
2017-12-29T20:27:56.830Z,93.28
2017-12-29T20:30:24.968Z,93.54
2017-12-29T20:32:53.767Z,93.59
2017-12-29T20:35:23.163Z,93.47
2017-12-29T20:37:51.412Z,93.72
2017-12-29T20:40:20.077Z,94.19
2017-12-29T20:42:47.575Z,94.13
2017-12-29T20:45:16.262Z,94.42
2017-12-29T20:47:45.240Z,93.87
2017-12-29T20:50:13.859Z,93.97
2017-12-29T20:52:42.442Z,94.12
2017-12-29T20:55:11.125Z,94.49
2017-12-29T20:57:39.428Z,94.52
2017-12-29T21:00:08.403Z,94.12
2017-12-29T21:02:36.683Z,94.23
2017-12-29T21:05:05.455Z,94.17
2017-12-29T21:07:34.336Z,94.48
2017-12-29T21:10:03.264Z,94.77
2017-12-29T21:12:32.032Z,94.55
2017-12-29T21:15:00.651Z,94.71
2017-12-29T21:17:29.979Z,94.96
2017-12-29T21:20:03.044Z,94.96
2017-12-29T21:35:45.782Z,95.47
2017-12-29T21:38:14.587Z,95.48
2017-12-29T21:40:43.420Z,95.68
2017-12-29T21:43:13.087Z,95.69
2017-12-29T21:45:41.976Z,95.80
2017-12-29T21:48:10.941Z,95.77
2017-12-29T21:50:39.733Z,95.89
2017-12-29T21:53:08.734Z,95.94
2017-12-29T21:55:37.653Z,95.97
2017-12-29T21:58:06.553Z,96.08
2017-12-29T22:00:35.373Z,95.96
2017-12-29T22:03:04.091Z,95.85
2017-12-29T22:05:32.960Z,95.49
2017-12-29T22:08:00.980Z,96.00
2017-12-29T22:10:28.516Z,95.93
2017-12-29T22:12:55.486Z,95.97
2017-12-29T22:15:22.512Z,96.25
2017-12-29T22:17:50.113Z,95.93
2017-12-29T22:20:17.827Z,96.16
2017-12-29T22:22:45.781Z,96.07
2017-12-29T22:25:15.429Z,96.07
2017-12-29T22:27:42.517Z,95.95
2017-12-29T22:30:09.880Z,95.83
2017-12-29T22:32:38.190Z,96.43
2017-12-29T22:35:05.912Z,96.10
2017-12-29T22:37:33.750Z,96.32
2017-12-29T22:40:01.437Z,95.89
2017-12-29T22:42:28.490Z,96.07
2017-12-29T22:44:55.515Z,96.06
2017-12-29T22:47:22.394Z,96.25
2017-12-29T22:49:50.074Z,96.37
2017-12-29T22:52:18.090Z,96.11
2017-12-29T22:54:45.924Z,96.48
2017-12-29T22:57:12.736Z,96.58
2017-12-29T22:59:40.876Z,96.46
2017-12-29T23:02:07.701Z,96.43
2017-12-29T23:04:35.250Z,96.23
2017-12-29T23:07:02.105Z,96.34
2017-12-29T23:09:28.923Z,96.42
2017-12-29T23:11:55.902Z,96.36
2017-12-29T23:14:22.754Z,96.47
2017-12-29T23:16:49.695Z,96.38
2017-12-29T23:19:16.559Z,95.97
2017-12-29T23:21:44.224Z,96.26
2017-12-29T23:24:11.066Z,96.37
2017-12-29T23:26:37.932Z,96.28
2017-12-29T23:29:04.792Z,96.25
2017-12-29T23:31:31.669Z,96.30
2017-12-29T23:33:58.474Z,95.96
2017-12-29T23:36:25.339Z,95.72
2017-12-29T23:38:52.234Z,96.22
2017-12-29T23:41:19.056Z,96.27
2017-12-29T23:43:45.900Z,95.93
2017-12-29T23:46:12.765Z,96.16
2017-12-29T23:48:39.802Z,96.19
2017-12-29T23:51:07.110Z,95.71
2017-12-29T23:53:33.915Z,95.64
2017-12-29T23:56:00.815Z,95.61
2017-12-29T23:58:28.363Z,95.55
